createdAt,value
2018-10-01T00:00:21.820Z,55.80
2018-10-01T00:02:50.148Z,55.80
2018-10-01T00:05:18.751Z,55.90
2018-10-01T00:07:48.603Z,55.80
2018-10-01T00:10:17.372Z,55.90
2018-10-01T00:12:46.138Z,56.00
2018-10-01T00:15:14.821Z,56.20
2018-10-01T00:17:43.187Z,56.20
2018-10-01T00:20:16.975Z,56.30
2018-10-01T00:22:49.547Z,56.30
2018-10-01T00:25:18.363Z,56.40
2018-10-01T00:27:47.121Z,56.40
2018-10-01T00:30:15.492Z,56.50
2018-10-01T00:32:43.837Z,56.50
2018-10-01T00:35:12.211Z,56.60
2018-10-01T00:37:41.942Z,56.70
2018-10-01T00:40:10.816Z,56.80
2018-10-01T00:42:40.285Z,56.90
2018-10-01T00:45:10.502Z,56.80
2018-10-01T00:47:39.062Z,57.20
2018-10-01T00:50:07.456Z,57.70
2018-10-01T00:52:35.807Z,58.00
2018-10-01T00:55:04.421Z,58.30
2018-10-01T00:57:32.786Z,58.60
2018-10-01T01:00:01.290Z,58.80
2018-10-01T01:02:29.636Z,59.30
2018-10-01T01:04:58.112Z,59.50
2018-10-01T01:07:26.723Z,59.50
2018-10-01T01:09:57.113Z,59.60
2018-10-01T01:12:29.049Z,59.50
2018-10-01T01:14:59.907Z,59.50
2018-10-01T01:17:28.230Z,59.70
2018-10-01T01:19:56.610Z,59.80
2018-10-01T01:22:25.061Z,60.00
2018-10-01T01:24:53.418Z,60.00
2018-10-01T01:27:21.750Z,60.30
2018-10-01T01:29:50.142Z,60.30
2018-10-01T01:32:18.474Z,60.00
2018-10-01T01:34:47.583Z,60.00
2018-10-01T01:37:15.931Z,60.00
2018-10-01T01:39:44.454Z,60.00
2018-10-01T01:42:12.833Z,60.10
2018-10-01T01:44:41.287Z,60.20
2018-10-01T01:47:09.878Z,60.30
2018-10-01T01:49:38.336Z,60.50
2018-10-01T01:52:06.777Z,60.30
2018-10-01T01:54:35.127Z,60.60
2018-10-01T01:57:03.517Z,60.30
2018-10-01T01:59:32.200Z,60.40
2018-10-01T02:02:01.327Z,60.40
2018-10-01T02:04:31.621Z,60.50
2018-10-01T02:06:59.955Z,60.50
2018-10-01T02:09:28.347Z,60.70
2018-10-01T02:11:56.811Z,61.00
2018-10-01T02:14:25.195Z,61.20
2018-10-01T02:16:53.511Z,61.60
2018-10-01T02:19:21.916Z,61.70
2018-10-01T02:21:50.310Z,62.50
2018-10-01T02:24:18.674Z,61.90
2018-10-01T02:26:47.064Z,62.30
2018-10-01T02:29:15.508Z,62.50
2018-10-01T02:31:44.054Z,62.50
2018-10-01T02:34:12.427Z,62.80
2018-10-01T02:36:40.771Z,62.80
2018-10-01T02:39:10.942Z,62.60
2018-10-01T02:41:39.284Z,62.70
2018-10-01T02:44:07.924Z,62.80
2018-10-01T02:46:36.340Z,63.00
2018-10-01T02:49:05.179Z,62.90
2018-10-01T02:51:37.763Z,62.80
2018-10-01T02:54:11.147Z,62.70
2018-10-01T02:56:39.553Z,62.50
2018-10-01T02:59:08.118Z,62.50
2018-10-01T03:01:36.457Z,62.30
2018-10-01T03:04:04.814Z,62.10
2018-10-01T03:06:33.230Z,62.00
2018-10-01T03:09:01.601Z,61.80
2018-10-01T03:11:30.004Z,61.50
2018-10-01T03:13:58.494Z,61.30
2018-10-01T03:16:27.908Z,61.30
2018-10-01T03:18:56.359Z,61.30
2018-10-01T03:21:24.814Z,61.10
2018-10-01T03:23:53.056Z,61.10
2018-10-01T03:26:21.399Z,61.10
2018-10-01T03:28:49.783Z,61.00
2018-10-01T03:31:18.168Z,60.90
2018-10-01T03:33:46.863Z,60.80
2018-10-01T03:36:16.143Z,60.80
2018-10-01T03:38:44.495Z,60.90
2018-10-01T03:41:12.870Z,60.90
2018-10-01T03:43:41.358Z,60.90
2018-10-01T03:46:09.704Z,60.80
2018-10-01T03:48:38.039Z,60.60
2018-10-01T03:51:06.555Z,60.50
2018-10-01T03:53:35.005Z,60.40
2018-10-01T03:56:05.092Z,60.40
2018-10-01T03:58:33.444Z,60.30
2018-10-01T04:01:01.976Z,60.30
2018-10-01T04:03:30.362Z,60.40
2018-10-01T04:05:58.822Z,60.30
2018-10-01T04:08:27.198Z,60.50
2018-10-01T04:10:55.595Z,60.50
2018-10-01T04:13:24.048Z,60.40
2018-10-01T04:15:52.458Z,60.70
2018-10-01T04:18:20.859Z,60.80
2018-10-01T04:20:49.242Z,60.90
2018-10-01T04:23:17.608Z,60.90
2018-10-01T04:25:45.933Z,60.80
2018-10-01T04:28:14.480Z,60.90
2018-10-01T04:30:42.792Z,61.00
2018-10-01T04:33:11.203Z,60.70
2018-10-01T04:35:39.550Z,61.00
2018-10-01T04:38:07.966Z,61.10
2018-10-01T04:40:36.349Z,61.10
2018-10-01T04:43:04.744Z,61.20
2018-10-01T04:45:33.079Z,61.30
2018-10-01T04:48:01.472Z,61.20
2018-10-01T04:50:29.834Z,61.10
2018-10-01T04:52:58.370Z,61.00
2018-10-01T04:55:26.826Z,60.90
2018-10-01T04:57:55.393Z,60.80
2018-10-01T05:00:23.786Z,60.60
2018-10-01T05:02:52.163Z,60.60
2018-10-01T05:05:20.630Z,61.20
2018-10-01T05:07:49.020Z,60.70
2018-10-01T05:10:17.421Z,60.70
2018-10-01T05:12:45.744Z,60.70
2018-10-01T05:15:14.103Z,60.50
2018-10-01T05:17:42.521Z,60.60
2018-10-01T05:20:10.990Z,60.50
2018-10-01T05:22:39.348Z,60.50
2018-10-01T05:25:07.983Z,60.30
2018-10-01T05:27:36.330Z,60.10
2018-10-01T05:30:04.836Z,59.90
2018-10-01T05:32:33.198Z,59.90
2018-10-01T05:35:01.539Z,59.90
2018-10-01T05:37:29.874Z,59.80
2018-10-01T05:39:58.460Z,59.90
2018-10-01T05:42:26.806Z,59.90
2018-10-01T05:44:55.243Z,60.00
2018-10-01T05:47:23.707Z,60.00
2018-10-01T05:49:52.035Z,60.00
2018-10-01T05:52:20.522Z,60.00
2018-10-01T05:54:49.106Z,60.00
2018-10-01T05:57:17.496Z,60.00
2018-10-01T05:59:45.818Z,60.00
2018-10-01T06:02:14.250Z,60.00
2018-10-01T06:04:43.414Z,60.00
2018-10-01T06:07:11.809Z,60.00
2018-10-01T06:09:40.166Z,60.20
2018-10-01T06:12:08.526Z,60.20
2018-10-01T06:14:36.866Z,60.30
2018-10-01T06:17:05.293Z,60.20
2018-10-01T06:19:33.618Z,60.30
2018-10-01T06:22:02.402Z,60.20
2018-10-01T06:24:30.873Z,60.10
2018-10-01T06:26:59.249Z,60.30
2018-10-01T06:29:27.619Z,60.50
2018-10-01T06:31:56.005Z,60.70
2018-10-01T06:34:24.403Z,61.00
2018-10-01T06:36:52.762Z,61.20
2018-10-01T06:39:21.197Z,61.00
2018-10-01T06:41:49.577Z,60.90
2018-10-01T06:44:18.007Z,60.80
2018-10-01T06:46:46.339Z,60.60
2018-10-01T06:49:14.691Z,60.50
2018-10-01T06:51:43.047Z,60.30
2018-10-01T06:54:11.421Z,60.50
2018-10-01T06:56:39.856Z,60.40
2018-10-01T06:59:08.246Z,60.60
2018-10-01T07:01:36.827Z,60.20
2018-10-01T07:04:05.319Z,60.40
2018-10-01T07:06:33.658Z,60.10
2018-10-01T07:09:02.019Z,60.40
2018-10-01T07:11:30.692Z,60.90
2018-10-01T07:13:59.022Z,61.80
2018-10-01T07:16:27.637Z,61.10
2018-10-01T07:18:55.952Z,60.90
2018-10-01T07:21:24.389Z,61.00
2018-10-01T07:23:52.828Z,61.10
2018-10-01T07:26:21.196Z,61.50
2018-10-01T07:28:49.566Z,61.00
2018-10-01T07:31:17.919Z,60.50
2018-10-01T07:33:46.284Z,60.40
2018-10-01T07:36:14.640Z,60.40
2018-10-01T07:38:42.999Z,60.50
2018-10-01T07:41:11.366Z,60.10
2018-10-01T07:43:39.800Z,60.80
2018-10-01T07:46:08.216Z,60.30
2018-10-01T07:48:36.523Z,59.70
2018-10-01T07:51:04.930Z,60.00
2018-10-01T07:53:33.283Z,59.80
2018-10-01T07:56:01.664Z,59.80
2018-10-01T07:58:30.012Z,58.90
2018-10-01T08:00:58.575Z,58.80
2018-10-01T08:03:27.038Z,58.20
2018-10-01T08:05:55.376Z,58.00
2018-10-01T08:08:23.757Z,57.60
2018-10-01T08:10:52.115Z,58.10
2018-10-01T08:13:20.510Z,57.70
2018-10-01T08:15:49.000Z,57.80
2018-10-01T08:18:18.028Z,57.60
2018-10-01T08:20:46.360Z,57.10
2018-10-01T08:23:14.718Z,57.30
2018-10-01T08:25:43.065Z,57.00
2018-10-01T08:28:11.413Z,56.70
2018-10-01T08:30:39.763Z,57.60
2018-10-01T08:33:08.128Z,56.80
2018-10-01T08:35:36.498Z,57.10
2018-10-01T08:38:04.992Z,57.10
2018-10-01T08:40:33.239Z,56.90
2018-10-01T08:43:01.605Z,56.40
2018-10-01T08:45:30.032Z,56.30
2018-10-01T08:47:58.502Z,55.90
2018-10-01T08:50:32.204Z,55.70
2018-10-01T08:53:05.443Z,55.70
2018-10-01T08:55:33.755Z,55.80
2018-10-01T08:58:02.118Z,55.90
2018-10-01T09:00:30.465Z,55.10
2018-10-01T09:02:58.947Z,54.90
2018-10-01T09:05:27.318Z,54.00
2018-10-01T09:07:55.648Z,53.20
2018-10-01T09:10:24.146Z,53.30
2018-10-01T09:12:52.522Z,52.90
2018-10-01T09:15:20.954Z,53.00
2018-10-01T09:17:49.319Z,53.20
2018-10-01T09:20:17.720Z,53.30
2018-10-01T09:22:46.066Z,54.40
2018-10-01T09:25:14.402Z,52.80
2018-10-01T09:27:42.759Z,52.10
2018-10-01T09:30:11.142Z,51.60
2018-10-01T09:32:39.563Z,51.60
2018-10-01T09:35:07.944Z,52.70
2018-10-01T09:37:36.239Z,52.80
2018-10-01T09:40:04.737Z,51.90
2018-10-01T09:42:33.030Z,52.60
2018-10-01T09:45:01.448Z,52.60
2018-10-01T09:47:29.872Z,52.30
2018-10-01T09:49:58.252Z,51.80
2018-10-01T09:52:26.622Z,52.00
2018-10-01T09:54:54.970Z,52.30
2018-10-01T09:57:23.352Z,50.80
2018-10-01T09:59:51.719Z,51.10
2018-10-01T10:02:20.288Z,52.10
2018-10-01T10:04:48.960Z,50.70
2018-10-01T10:07:17.266Z,50.80
2018-10-01T10:09:45.699Z,50.30
2018-10-01T10:12:14.243Z,49.60
2018-10-01T10:14:42.909Z,49.50
2018-10-01T10:17:11.266Z,49.70
2018-10-01T10:19:39.659Z,49.40
2018-10-01T10:22:08.947Z,50.20
2018-10-01T10:24:37.382Z,50.30
2018-10-01T10:27:05.784Z,51.20
2018-10-01T10:29:34.103Z,51.30
2018-10-01T10:32:02.509Z,52.00
2018-10-01T10:34:31.008Z,51.80
2018-10-01T10:36:59.385Z,51.30
2018-10-01T10:39:27.754Z,50.00
2018-10-01T10:41:56.863Z,50.80
2018-10-01T10:44:25.263Z,49.70
2018-10-01T10:46:54.848Z,49.10
2018-10-01T10:49:23.239Z,48.60
2018-10-01T10:51:51.663Z,48.60
2018-10-01T10:54:20.135Z,49.10
2018-10-01T10:56:48.476Z,49.30
2018-10-01T10:59:16.835Z,50.80
2018-10-01T11:01:45.186Z,53.00
2018-10-01T11:04:13.618Z,53.60
2018-10-01T11:06:42.927Z,53.80
2018-10-01T11:09:12.443Z,54.30
2018-10-01T11:11:40.849Z,54.70
2018-10-01T11:14:09.307Z,54.00
2018-10-01T11:16:37.636Z,53.10
2018-10-01T11:19:07.159Z,52.40
2018-10-01T11:21:35.436Z,52.20
2018-10-01T11:24:04.303Z,54.20
2018-10-01T11:26:33.202Z,55.50
2018-10-01T11:29:01.605Z,56.10
2018-10-01T11:31:30.033Z,57.50
2018-10-01T11:33:58.339Z,59.80
2018-10-01T11:36:27.068Z,58.00
2018-10-01T11:38:55.574Z,55.90
2018-10-01T11:41:24.003Z,54.40
2018-10-01T11:43:52.642Z,54.90
2018-10-01T11:46:21.148Z,52.80
2018-10-01T11:48:49.842Z,51.80
2018-10-01T11:51:18.438Z,52.40
2018-10-01T11:53:46.958Z,51.20
2018-10-01T11:56:15.351Z,50.70
2018-10-01T11:58:43.719Z,48.00
2018-10-01T12:01:12.187Z,49.40
2018-10-01T12:03:40.775Z,47.20
2018-10-01T12:06:09.171Z,47.20
2018-10-01T12:08:37.728Z,45.90
2018-10-01T12:11:06.106Z,46.30
2018-10-01T12:13:34.812Z,46.40
2018-10-01T12:16:03.553Z,50.00
2018-10-01T12:18:31.758Z,50.70
2018-10-01T12:21:00.347Z,52.20
2018-10-01T12:23:28.905Z,53.70
2018-10-01T12:25:57.409Z,53.60
2018-10-01T12:28:25.795Z,54.30
2018-10-01T12:30:54.192Z,56.00
2018-10-01T12:33:22.576Z,55.40
2018-10-01T12:35:50.882Z,54.60
2018-10-01T12:38:19.250Z,55.20
2018-10-01T12:40:47.715Z,56.70
2018-10-01T12:43:16.835Z,55.80
2018-10-01T12:45:45.320Z,56.70
2018-10-01T12:48:13.707Z,56.50
2018-10-01T12:50:42.067Z,55.40
2018-10-01T12:53:10.427Z,53.40
2018-10-01T12:55:38.899Z,52.50
2018-10-01T12:58:07.345Z,52.50
2018-10-01T13:00:35.679Z,51.30
2018-10-01T13:03:04.051Z,51.90
2018-10-01T13:05:33.125Z,50.70
2018-10-01T13:08:02.585Z,47.90
2018-10-01T13:10:31.123Z,48.40
2018-10-01T13:12:59.778Z,48.50
2018-10-01T13:15:28.151Z,46.50
2018-10-01T13:17:57.246Z,46.40
2018-10-01T13:20:25.517Z,42.40
2018-10-01T13:22:53.863Z,40.10
2018-10-01T13:25:22.258Z,39.80
2018-10-01T13:27:50.735Z,39.80
2018-10-01T13:30:19.178Z,40.70
2018-10-01T13:32:47.456Z,42.30
2018-10-01T13:35:16.403Z,42.30
2018-10-01T13:37:44.827Z,42.30
2018-10-01T13:40:13.227Z,43.00
2018-10-01T13:42:41.647Z,43.80
2018-10-01T13:45:10.056Z,46.10
2018-10-01T13:47:38.951Z,48.80
2018-10-01T13:50:07.762Z,50.60
2018-10-01T13:52:36.147Z,49.90
2018-10-01T13:55:04.730Z,50.90
2018-10-01T13:57:33.116Z,51.30
2018-10-01T14:00:02.455Z,52.60
2018-10-01T14:02:30.783Z,53.10
2018-10-01T14:04:59.382Z,51.90
2018-10-01T14:07:27.810Z,50.60
2018-10-01T14:09:56.169Z,49.80
2018-10-01T14:12:24.632Z,49.90
2018-10-01T14:14:52.973Z,51.20
2018-10-01T14:17:21.356Z,50.90
2018-10-01T14:19:49.880Z,47.60
2018-10-01T14:22:18.074Z,47.70
2018-10-01T14:24:46.464Z,47.30
2018-10-01T14:27:14.867Z,41.90
2018-10-01T14:29:43.199Z,41.50
2018-10-01T14:32:11.634Z,40.10
2018-10-01T14:34:40.059Z,39.20
2018-10-01T14:37:08.446Z,39.70
2018-10-01T14:39:36.788Z,40.30
2018-10-01T14:42:05.255Z,42.20
2018-10-01T14:44:33.859Z,43.10
2018-10-01T14:47:04.874Z,45.00
2018-10-01T14:49:35.264Z,46.30
2018-10-01T14:52:05.390Z,46.10
2018-10-01T14:54:35.491Z,48.00
2018-10-01T14:57:03.802Z,48.60
2018-10-01T14:59:32.236Z,46.60
2018-10-01T15:02:00.757Z,46.10
2018-10-01T15:04:29.256Z,46.10
2018-10-01T15:06:57.627Z,45.00
2018-10-01T15:09:26.060Z,44.80
2018-10-01T15:11:55.666Z,44.30
2018-10-01T15:14:24.018Z,42.90
2018-10-01T15:16:53.751Z,43.40
2018-10-01T15:19:23.692Z,43.00
2018-10-01T15:21:53.272Z,43.00
2018-10-01T15:24:23.304Z,43.40
2018-10-01T15:26:51.646Z,41.60
2018-10-01T15:29:20.125Z,40.50
2018-10-01T15:31:48.471Z,39.50
2018-10-01T15:34:16.952Z,40.60
2018-10-01T15:36:45.331Z,42.00
2018-10-01T15:39:13.719Z,44.00
2018-10-01T15:41:42.102Z,44.00
2018-10-01T15:44:10.615Z,44.10
2018-10-01T15:46:40.131Z,44.60
2018-10-01T15:49:08.562Z,44.50
2018-10-01T15:51:37.802Z,45.50
2018-10-01T15:54:07.799Z,46.40
2018-10-01T15:56:36.419Z,46.00
2018-10-01T15:59:04.950Z,46.90
2018-10-01T16:01:33.561Z,48.40
2018-10-01T16:04:02.118Z,48.00
2018-10-01T16:06:30.506Z,47.50
2018-10-01T16:08:58.921Z,47.10
2018-10-01T16:11:27.327Z,46.20
2018-10-01T16:13:55.806Z,46.20
2018-10-01T16:16:25.350Z,46.30
2018-10-01T16:18:53.740Z,45.60
2018-10-01T16:21:22.844Z,45.00
2018-10-01T16:23:51.218Z,45.10
2018-10-01T16:26:19.820Z,45.20
2018-10-01T16:28:48.191Z,45.60
2018-10-01T16:31:16.545Z,44.90
2018-10-01T16:33:45.347Z,45.80
2018-10-01T16:36:13.792Z,45.80
2018-10-01T16:38:43.114Z,46.60
2018-10-01T16:41:11.543Z,47.50
2018-10-01T16:43:39.943Z,48.40
2018-10-01T16:46:08.438Z,48.90
2018-10-01T16:48:37.078Z,49.40
2018-10-01T16:51:05.487Z,49.70
2018-10-01T16:53:34.113Z,50.30
2018-10-01T16:56:02.667Z,50.40
2018-10-01T16:58:31.121Z,50.80
2018-10-01T17:00:59.561Z,51.10
2018-10-01T17:03:27.932Z,51.40
2018-10-01T17:05:57.560Z,51.40
2018-10-01T17:08:29.256Z,51.50
2018-10-01T17:10:57.972Z,52.20
2018-10-01T17:13:26.411Z,51.90
2018-10-01T17:15:55.987Z,52.00
2018-10-01T17:18:25.486Z,52.20
2018-10-01T17:20:54.345Z,52.30
2018-10-01T17:23:23.192Z,52.10
2018-10-01T17:25:51.619Z,52.30
2018-10-01T17:28:20.179Z,52.40
2018-10-01T17:30:49.299Z,52.70
2018-10-01T17:33:17.723Z,52.40
2018-10-01T17:35:46.143Z,52.40
2018-10-01T17:38:14.606Z,52.00
2018-10-01T17:40:43.085Z,51.80
2018-10-01T17:43:11.594Z,52.00
2018-10-01T17:45:39.951Z,51.90
2018-10-01T17:48:10.161Z,51.70
2018-10-01T17:50:39.559Z,51.70
2018-10-01T17:53:08.955Z,51.90
2018-10-01T17:55:37.309Z,51.60
2018-10-01T17:58:05.929Z,51.50
2018-10-01T18:00:34.397Z,51.40
2018-10-01T18:03:02.779Z,51.20
2018-10-01T18:05:31.174Z,51.30
2018-10-01T18:07:59.758Z,51.50
2018-10-01T18:10:28.146Z,51.50
2018-10-01T18:12:56.931Z,52.10
2018-10-01T18:15:25.309Z,51.70
2018-10-01T18:17:53.725Z,51.50
2018-10-01T18:20:22.410Z,51.50
2018-10-01T18:22:50.851Z,52.30
2018-10-01T18:25:20.242Z,51.90
2018-10-01T18:27:48.770Z,51.90
2018-10-01T18:30:17.194Z,52.00
2018-10-01T18:32:45.864Z,52.10
2018-10-01T18:35:14.408Z,52.00
2018-10-01T18:37:43.775Z,52.10
2018-10-01T18:40:13.982Z,52.10
2018-10-01T18:42:44.640Z,52.00
2018-10-01T18:45:14.493Z,52.00
2018-10-01T18:47:43.716Z,51.90
2018-10-01T18:50:12.160Z,52.10
2018-10-01T18:52:41.355Z,52.10
2018-10-01T18:55:09.995Z,52.30
2018-10-01T18:57:38.449Z,52.70
2018-10-01T19:00:08.629Z,53.10
2018-10-01T19:02:36.979Z,53.50
2018-10-01T19:05:06.143Z,53.80
2018-10-01T19:07:34.550Z,54.10
2018-10-01T19:10:03.678Z,54.50
2018-10-01T19:12:32.239Z,54.60
2018-10-01T19:15:00.731Z,54.80
2018-10-01T19:17:32.277Z,54.90
2018-10-01T19:20:01.011Z,55.20
2018-10-01T19:22:30.131Z,55.70
2018-10-01T19:24:58.994Z,56.00
2018-10-01T19:27:27.428Z,55.90
2018-10-01T19:29:56.733Z,55.90
2018-10-01T19:32:25.086Z,55.80
2018-10-01T19:34:53.520Z,55.80
2018-10-01T19:37:21.920Z,55.70
2018-10-01T19:39:50.332Z,59.00
2018-10-01T19:42:18.869Z,58.40
2018-10-01T19:44:47.441Z,56.80
2018-10-01T19:47:15.906Z,55.20
2018-10-01T19:49:44.353Z,54.70
2018-10-01T19:52:12.837Z,53.10
2018-10-01T19:54:41.447Z,52.10
2018-10-01T19:57:09.963Z,51.00
2018-10-01T19:59:38.583Z,51.10
2018-10-01T20:02:07.135Z,51.70
2018-10-01T20:04:36.166Z,52.30
2018-10-01T20:07:04.555Z,52.80
2018-10-01T20:09:33.074Z,53.30
2018-10-01T20:12:01.631Z,54.00
2018-10-01T20:14:30.131Z,54.60
2018-10-01T20:16:58.541Z,55.00
2018-10-01T20:19:26.895Z,55.30
2018-10-01T20:21:55.362Z,55.70
2018-10-01T20:24:24.131Z,55.90
2018-10-01T20:26:52.499Z,55.90
2018-10-01T20:29:21.131Z,56.20
2018-10-01T20:31:49.387Z,56.30
2018-10-01T20:34:17.783Z,56.60
2018-10-01T20:36:46.165Z,56.70
2018-10-01T20:39:14.675Z,56.70
2018-10-01T20:41:43.120Z,56.80
2018-10-01T20:44:11.527Z,57.00
2018-10-01T20:46:39.875Z,57.20
2018-10-01T20:49:08.241Z,56.90
2018-10-01T20:51:36.819Z,57.00
2018-10-01T20:54:05.260Z,57.70
2018-10-01T20:56:33.900Z,57.30
2018-10-01T20:59:02.383Z,57.40
2018-10-01T21:01:30.699Z,57.40
2018-10-01T21:03:59.027Z,57.30
2018-10-01T21:06:27.565Z,57.50
2018-10-01T21:08:56.174Z,57.70
2018-10-01T21:11:24.536Z,57.80
2018-10-01T21:13:52.999Z,57.90
2018-10-01T21:16:21.334Z,57.80
2018-10-01T21:18:49.807Z,57.90
2018-10-01T21:21:18.211Z,57.90
2018-10-01T21:23:46.624Z,58.00
2018-10-01T21:26:15.043Z,58.00
2018-10-01T21:28:43.530Z,57.90
2018-10-01T21:31:11.949Z,58.00
2018-10-01T21:33:40.374Z,58.10
2018-10-01T21:36:08.755Z,58.20
2018-10-01T21:38:40.435Z,59.00
2018-10-01T21:41:09.083Z,58.50
2018-10-01T21:43:37.423Z,58.50
2018-10-01T21:46:06.133Z,58.70
2018-10-01T21:48:34.538Z,58.80
2018-10-01T21:51:02.986Z,58.90
2018-10-01T21:53:31.373Z,58.80
2018-10-01T21:55:59.900Z,58.80
2018-10-01T21:58:28.246Z,59.00
2018-10-01T22:01:02.351Z,59.40
2018-10-01T22:03:30.708Z,59.50
2018-10-01T22:05:59.115Z,59.70
2018-10-01T22:08:28.203Z,61.70
2018-10-01T22:10:56.679Z,59.40
2018-10-01T22:13:25.047Z,58.50
2018-10-01T22:15:53.441Z,58.10
2018-10-01T22:18:21.990Z,57.80
2018-10-01T22:20:50.371Z,57.40
2018-10-01T22:23:18.751Z,57.20
2018-10-01T22:25:47.133Z,57.30
2018-10-01T22:28:15.539Z,57.50
2018-10-01T22:30:43.909Z,57.90
2018-10-01T22:33:12.554Z,58.30
2018-10-01T22:35:40.982Z,58.70
2018-10-01T22:38:09.375Z,58.80
2018-10-01T22:40:37.803Z,58.90
2018-10-01T22:43:06.308Z,58.90
2018-10-01T22:45:34.751Z,58.90
2018-10-01T22:48:03.184Z,59.00
2018-10-01T22:50:31.582Z,59.50
2018-10-01T22:53:00.080Z,59.30
2018-10-01T22:55:30.184Z,59.70
2018-10-01T22:57:58.563Z,59.80
2018-10-01T23:00:28.020Z,59.90
2018-10-01T23:02:57.817Z,60.10
2018-10-01T23:05:27.435Z,60.20
2018-10-01T23:07:55.814Z,60.40
2018-10-01T23:10:24.191Z,60.40
2018-10-01T23:12:52.576Z,60.60
2018-10-01T23:15:20.986Z,60.60
2018-10-01T23:17:49.322Z,60.70
2018-10-01T23:20:17.863Z,60.70
2018-10-01T23:22:46.304Z,60.80
2018-10-01T23:25:14.663Z,60.80
2018-10-01T23:27:43.032Z,60.90
2018-10-01T23:30:11.513Z,61.00
2018-10-01T23:32:39.895Z,61.10
2018-10-01T23:35:08.383Z,61.10
2018-10-01T23:37:36.764Z,61.20
2018-10-01T23:40:05.343Z,61.20
2018-10-01T23:42:33.675Z,61.40
2018-10-01T23:45:02.095Z,61.80
2018-10-01T23:47:31.659Z,61.90
2018-10-01T23:50:00.440Z,62.00
2018-10-01T23:52:29.909Z,62.10
2018-10-01T23:54:59.115Z,62.30
2018-10-01T23:57:27.494Z,62.20
2018-10-01T23:59:55.914Z,62.10
